Time;durP1;ratioP1;P1;durP2;ratioP2;P2;SDS_P1;SDS_P2;PMS_P1;PMS_P2;Temp;Humidity;BMP_temperature;BMP_pressure;BME280_temperature;BME280_humidity;BME280_pressure;Samples;Min_cycle;Max_cycle;Signal;HPM_P1;HPM_P2
2021/05/18 00:01:14;;;;;;;2.67;1.50;;;;;;;10.37;91.46;99836.34;3591670;40;20052;-53
2021/05/18 00:03:41;;;;;;;2.72;1.25;;;;;;;10.36;91.94;99830.38;3593125;40;20495;-56
2021/05/18 00:06:08;;;;;;;2.35;1.30;;;;;;;10.35;91.49;99832.88;3591375;40;20052;-54
2021/05/18 00:11:42;;;;;;;3.00;1.58;;;;;;;10.28;91.46;99839.63;3591645;40;20721;-50
2021/05/18 00:14:08;;;;;;;1.67;1.58;;;;;;;10.18;92.08;99837.78;3591624;40;20136;-56
2021/05/18 00:16:35;;;;;;;2.78;2.08;;;;;;;10.13;92.63;99835.16;3586658;40;20107;-58
2021/05/18 00:19:04;;;;;;;3.85;1.30;;;;;;;10.06;92.93;99835.88;3590276;40;20096;-52
2021/05/18 00:21:31;;;;;;;1.77;1.38;;;;;;;10.09;92.63;99837.66;3586565;40;20318;-50
2021/05/18 00:23:59;;;;;;;1.67;1.58;;;;;;;10.08;92.86;99838.47;3578774;40;20348;-56
2021/05/18 00:26:31;;;;;;;3.33;1.65;;;;;;;9.99;92.68;99838.34;3582520;40;20037;-57
2021/05/18 00:28:58;;;;;;;2.60;1.63;;;;;;;9.81;93.35;99839.81;3591634;40;20387;-51
2021/05/18 00:31:25;;;;;;;2.08;1.65;;;;;;;9.77;93.64;99838.03;3592016;40;20118;-53
2021/05/18 00:33:52;;;;;;;2.97;1.55;;;;;;;9.86;92.94;99829.63;3590588;40;20131;-47
2021/05/18 00:36:19;;;;;;;2.05;1.77;;;;;;;9.55;95.45;99829.16;3581948;40;20092;-56
2021/05/18 00:38:46;;;;;;;5.15;1.70;;;;;;;9.47;95.64;99830.72;3592420;40;20358;-58
2021/05/18 00:41:15;;;;;;;2.85;1.80;;;;;;;9.68;95.28;99830.22;3591398;40;20101;-57
2021/05/18 00:43:42;;;;;;;1.65;1.55;;;;;;;9.74;93.38;99842.22;3583010;40;20405;-61
2021/05/18 00:46:11;;;;;;;1.60;1.50;;;;;;;9.63;93.99;99834.41;3592279;40;20069;-50
2021/05/18 00:48:38;;;;;;;3.00;1.33;;;;;;;9.43;96.19;99841.75;3584238;40;20059;-54
2021/05/18 00:51:07;;;;;;;1.75;1.60;;;;;;;9.50;95.14;99845.25;3591646;40;20083;-52
2021/05/18 00:53:36;;;;;;;1.85;1.30;;;;;;;9.44;94.29;99839.22;3586059;40;20032;-57
2021/05/18 00:58:37;;;;;;;1.52;1.42;;;;;;;9.52;94.22;99843.59;3592203;40;20080;-50
2021/05/18 01:01:20;;;;;;;2.92;1.45;;;;;;;9.44;94.48;99846.03;3590312;40;20106;-56
2021/05/18 01:03:49;;;;;;;4.07;1.50;;;;;;;9.12;95.81;99848.88;3588432;40;20043;-56
2021/05/18 01:08:49;;;;;;;1.65;1.55;;;;;;;9.36;95.04;99855.25;3592338;40;20389;-57
2021/05/18 01:11:20;;;;;;;1.80;1.45;;;;;;;9.42;94.62;99848.53;3581139;40;20081;-60
2021/05/18 01:13:47;;;;;;;2.55;1.30;;;;;;;9.40;94.84;99854.47;3591901;40;20116;-52
2021/05/18 01:16:15;;;;;;;2.13;1.63;;;;;;;9.24;94.47;99855.88;3590267;40;20287;-49
2021/05/18 01:18:45;;;;;;;2.25;1.00;;;;;;;9.32;94.63;99859.44;3592570;40;20405;-54
2021/05/18 01:21:13;;;;;;;1.45;1.10;;;;;;;9.32;94.58;99861.13;3591234;40;20049;-53
2021/05/18 01:23:41;;;;;;;1.38;1.27;;;;;;;9.29;95.04;99864.53;3583346;40;20409;-52
2021/05/18 01:26:10;;;;;;;1.55;1.25;;;;;;;9.23;95.38;99860.97;3590526;40;20071;-55
2021/05/18 01:28:37;;;;;;;1.50;1.40;;;;;;;9.25;94.92;99874.66;3591765;40;20056;-57
2021/05/18 01:31:07;;;;;;;2.08;1.17;;;;;;;9.21;94.91;99878.00;3591112;40;20181;-54
2021/05/18 01:33:34;;;;;;;2.15;1.80;;;;;;;9.22;95.54;99872.91;3585580;40;20043;-57
2021/05/18 01:36:11;;;;;;;3.67;1.33;;;;;;;9.23;95.24;99881.41;3581763;40;20103;-52
2021/05/18 01:44:03;;;;;;;1.73;1.63;;;;;;;9.06;95.79;99876.88;3590865;40;20714;-57
2021/05/18 01:46:30;;;;;;;2.92;1.13;;;;;;;8.96;96.44;99880.06;3581999;40;20079;-58
2021/05/18 01:49:01;;;;;;;3.75;1.60;;;;;;;8.79;97.46;99879.75;3590834;40;20084;-53
2021/05/18 01:51:43;;;;;;;2.50;1.27;;;;;;;8.87;97.83;99891.00;3591435;40;20086;-56
2021/05/18 01:54:13;;;;;;;3.58;1.67;;;;;;;8.89;97.01;99893.56;3590676;40;20064;-53
2021/05/18 01:59:30;;;;;;;2.08;1.45;;;;;;;9.03;96.29;99898.94;3590809;40;20036;-50
2021/05/18 02:02:03;;;;;;;1.40;1.30;;;;;;;8.80;97.31;99896.78;3590848;40;20087;-55
2021/05/18 02:04:36;;;;;;;2.10;1.38;;;;;;;8.77;97.77;99894.16;3587034;40;20048;-52
2021/05/18 02:07:33;;;;;;;1.55;1.33;;;;;;;8.74;97.63;99900.94;3590671;40;20413;-54
2021/05/18 02:10:00;;;;;;;;;;;;;;;8.67;97.67;99907.56;3588631;40;20100;-52
2021/05/18 02:12:27;;;;;;;4.55;1.60;;;;;;;8.56;97.92;99909.91;3591544;40;19948;-55
2021/05/18 02:15:03;;;;;;;2.05;1.60;;;;;;;8.53;98.68;99917.50;3591373;40;20612;-54
2021/05/18 02:17:38;;;;;;;2.55;1.40;;;;;;;8.56;97.64;99925.22;3590806;40;20052;-51
2021/05/18 02:20:24;;;;;;;3.42;1.65;;;;;;;8.54;98.54;99920.91;3590044;40;20131;-52
2021/05/18 02:25:53;;;;;;;4.20;1.70;;;;;;;8.54;98.10;99926.88;3539702;40;19961;-50
2021/05/18 02:28:20;;;;;;;2.17;1.95;;;;;;;8.48;98.45;99921.63;3578629;40;20055;-51
2021/05/18 02:30:49;;;;;;;2.00;1.83;;;;;;;8.37;99.43;99926.53;3591742;40;20055;-50
2021/05/18 02:33:16;;;;;;;2.03;1.83;;;;;;;8.46;98.54;99924.97;3590661;40;20081;-53
2021/05/18 02:35:43;;;;;;;2.72;1.80;;;;;;;8.05;99.39;99930.00;3591940;40;20063;-55
2021/05/18 02:38:10;;;;;;;2.58;1.52;;;;;;;8.32;99.73;99934.84;3590615;39;20070;-53
2021/05/18 02:40:40;;;;;;;2.25;2.05;;;;;;;8.34;99.29;99934.06;3590619;39;20091;-57
2021/05/18 02:43:10;;;;;;;2.53;1.95;;;;;;;8.36;99.11;99936.63;3590501;39;20085;-56
2021/05/18 02:45:50;;;;;;;1.77;1.63;;;;;;;8.01;100.00;99935.84;3586208;40;20056;-55
2021/05/18 02:51:03;;;;;;;1.60;1.50;;;;;;;7.97;100.00;99941.69;3589876;40;20048;-55
2021/05/18 02:53:30;;;;;;;5.10;2.10;;;;;;;8.04;100.00;99946.97;3591759;40;20274;-57
2021/05/18 02:56:10;;;;;;;1.63;1.50;;;;;;;7.80;100.00;99942.13;3591105;40;20044;-53
2021/05/18 02:58:39;;;;;;;1.95;1.77;;;;;;;7.80;100.00;99946.38;3587827;40;20080;-53
2021/05/18 03:01:06;;;;;;;2.53;2.00;;;;;;;7.90;100.00;99953.41;3591140;40;20048;-57
2021/05/18 03:03:34;;;;;;;3.75;1.75;;;;;;;8.03;100.00;99941.81;3575921;40;20036;-50
2021/05/18 03:06:01;;;;;;;1.50;1.40;;;;;;;8.15;99.92;99952.31;3590504;40;20337;-55
2021/05/18 03:08:28;;;;;;;2.10;1.65;;;;;;;7.75;100.00;99951.34;3590197;40;20413;-56
2021/05/18 03:10:55;;;;;;;1.58;1.48;;;;;;;8.03;100.00;99955.44;3590883;40;20096;-55
2021/05/18 03:13:22;;;;;;;2.20;1.90;;;;;;;8.10;100.00;99957.31;3590783;40;20468;-49
2021/05/18 03:15:49;;;;;;;2.70;1.88;;;;;;;7.87;100.00;99950.81;3591287;40;20355;-53
2021/05/18 03:18:16;;;;;;;2.45;1.83;;;;;;;7.87;100.00;99963.56;3580587;40;20048;-50
2021/05/18 03:20:43;;;;;;;1.80;1.35;;;;;;;7.91;100.00;99970.44;3591679;40;20052;-54
2021/05/18 03:23:10;;;;;;;4.32;1.60;;;;;;;7.83;100.00;99966.84;3590479;40;20060;-56
2021/05/18 03:25:37;;;;;;;3.15;2.20;;;;;;;7.96;100.00;99970.56;3591289;40;20119;-52
2021/05/18 03:28:04;;;;;;;4.22;2.10;;;;;;;8.13;100.00;99977.81;3590112;40;20043;-52
2021/05/18 03:35:45;;;;;;;3.72;2.22;;;;;;;7.98;100.00;99977.41;3588960;40;20122;-58
2021/05/18 03:40:49;;;;;;;3.95;2.10;;;;;;;8.02;100.00;99983.44;3589091;40;20503;-49
2021/05/18 03:43:54;;;;;;;2.42;1.80;;;;;;;7.93;100.00;99985.78;3589691;39;20055;-56
2021/05/18 04:04:58;;;;;;;2.30;1.50;;;;;;;8.48;100.00;100010.09;3592556;39;20053;-54
2021/05/18 04:18:19;;;;;;;1.83;1.27;;;;;;;9.33;97.29;100014.44;3588282;39;20053;-57
2021/05/18 04:20:55;;;;;;;2.70;1.60;;;;;;;9.42;96.04;100006.97;3592550;40;20131;-52
2021/05/18 04:23:33;;;;;;;1.33;1.23;;;;;;;9.32;97.31;100010.19;3587592;39;20044;-55
2021/05/18 04:26:33;;;;;;;3.13;1.67;;;;;;;9.57;96.96;100008.97;3577314;40;20067;-52
2021/05/18 04:40:51;;;;;;;2.63;1.75;;;;;;;9.89;95.48;100026.56;3589145;40;20040;-56
2021/05/18 04:43:31;;;;;;;3.22;1.80;;;;;;;9.99;95.16;100037.84;3590858;40;20386;-57
2021/05/18 04:59:23;;;;;;;2.22;2.00;;;;;;;10.55;95.24;100053.28;3570518;40;20055;-52
2021/05/18 05:07:09;;;;;;;4.65;2.55;;;;;;;11.35;93.26;100060.38;3588075;40;20056;-55
2021/05/18 05:09:41;;;;;;;4.78;3.25;;;;;;;11.56;92.45;100060.66;3576958;40;20055;-56
2021/05/18 05:14:48;;;;;;;4.95;3.92;;;;;;;11.60;93.32;100066.63;3592396;40;20110;-48
2021/05/18 05:17:15;;;;;;;5.93;4.18;;;;;;;11.63;92.87;100074.38;3628877;22;20045;-55
2021/05/18 05:19:43;;;;;;;6.22;4.50;;;;;;;11.69;92.48;100085.59;3573513;40;20052;-58
2021/05/18 05:22:12;;;;;;;6.63;4.63;;;;;;;11.57;93.43;100080.31;3573636;40;20067;-56
2021/05/18 05:24:39;;;;;;;6.68;4.60;;;;;;;11.82;92.99;100083.13;3573512;40;20577;-59
2021/05/18 05:27:07;;;;;;;5.75;4.57;;;;;;;11.81;94.21;100084.00;3571944;40;20085;-53
2021/05/18 05:29:55;;;;;;;6.85;4.45;;;;;;;11.85;93.95;100084.06;3564368;40;20075;-54
2021/05/18 05:32:22;;;;;;;7.35;4.65;;;;;;;11.63;95.47;100087.19;3567267;40;20151;-53
2021/05/18 05:34:51;;;;;;;7.68;5.65;;;;;;;11.65;96.70;100088.97;3560220;40;20131;-54
2021/05/18 05:37:18;;;;;;;7.30;5.07;;;;;;;11.61;98.33;100100.03;3563265;40;20337;-55
2021/05/18 05:39:46;;;;;;;8.40;5.55;;;;;;;11.36;99.53;100101.41;3568329;40;20065;-55
2021/05/18 05:42:13;;;;;;;8.02;5.72;;;;;;;11.39;100.00;100105.72;3565811;40;20069;-58
2021/05/18 05:44:40;;;;;;;10.73;6.40;;;;;;;11.44;100.00;100101.50;3566208;40;20076;-55
2021/05/18 05:47:07;;;;;;;9.32;6.32;;;;;;;11.24;100.00;100106.38;3567367;40;20069;-60
2021/05/18 05:49:35;;;;;;;9.07;6.57;;;;;;;11.17;100.00;100110.53;3563662;40;20085;-53
2021/05/18 05:52:04;;;;;;;10.45;6.38;;;;;;;11.09;100.00;100113.84;3565622;40;20390;-51
2021/05/18 05:54:32;;;;;;;8.13;6.53;;;;;;;11.18;100.00;100108.84;3567815;40;20081;-55
2021/05/18 05:56:59;;;;;;;8.75;6.68;;;;;;;10.94;100.00;100115.34;3570968;40;20059;-51
2021/05/18 05:59:26;;;;;;;12.95;6.68;;;;;;;11.09;100.00;100124.97;3565314;40;20431;-53
2021/05/18 06:01:53;;;;;;;9.05;6.40;;;;;;;11.13;100.00;100121.59;3566612;40;20081;-54
2021/05/18 06:04:23;;;;;;;12.48;7.00;;;;;;;10.93;100.00;100118.75;3564485;40;20061;-57
2021/05/18 06:06:50;;;;;;;9.63;6.53;;;;;;;11.30;100.00;100119.28;3563908;40;20194;-57
2021/05/18 06:09:17;;;;;;;9.38;6.15;;;;;;;11.42;100.00;100124.56;3564926;40;20439;-58
2021/05/18 06:42:07;;;;;;;10.73;7.90;;;;;;;12.70;97.37;100157.59;3570367;40;20203;-53
2021/05/18 06:47:31;;;;;;;9.13;7.22;;;;;;;12.85;96.13;100159.44;3568823;40;20443;-56
2021/05/18 06:50:22;;;;;;;11.32;7.35;;;;;;;12.94;95.76;100164.63;3569542;40;20049;-53
2021/05/18 06:52:49;;;;;;;9.02;8.13;;;;;;;12.88;93.94;100173.16;3570975;40;20080;-55
2021/05/18 06:55:20;;;;;;;9.05;8.07;;;;;;;13.07;94.88;100168.16;3568275;40;20461;-54
2021/05/18 06:57:50;;;;;;;9.82;7.80;;;;;;;12.86;97.00;100177.44;3566894;40;20057;-50
2021/05/18 07:00:20;;;;;;;9.75;7.65;;;;;;;12.96;97.10;100186.09;3567306;40;20048;-53
2021/05/18 07:02:51;;;;;;;10.43;8.30;;;;;;;12.94;95.98;100180.06;3569015;40;20055;-56
2021/05/18 07:05:47;;;;;;;9.23;8.20;;;;;;;12.71;98.34;100182.44;3569277;40;20093;-52
2021/05/18 07:10:46;;;;;;;8.88;7.50;;;;;;;13.30;95.80;100182.06;3570809;40;20077;-53
2021/05/18 07:13:15;;;;;;;9.30;8.35;;;;;;;13.47;93.75;100184.75;3569459;40;20064;-55
2021/05/18 07:15:42;;;;;;;9.45;8.30;;;;;;;13.63;94.44;100181.41;3569472;40;20053;-50
2021/05/18 07:18:10;;;;;;;9.60;8.48;;;;;;;13.67;94.51;100190.00;3566546;40;20060;-54
2021/05/18 07:20:37;;;;;;;9.02;8.18;;;;;;;13.66;94.12;100191.72;3569024;40;20116;-56
2021/05/18 07:23:14;;;;;;;10.80;8.13;;;;;;;13.64;92.86;100192.56;3568675;40;20048;-53
2021/05/18 07:25:41;;;;;;;12.45;10.35;;;;;;;13.75;92.50;100196.03;3564808;40;20414;-54
2021/05/18 07:28:09;;;;;;;8.65;7.72;;;;;;;13.95;90.33;100203.84;3570213;40;20307;-53
2021/05/18 07:30:38;;;;;;;11.35;10.07;;;;;;;14.05;91.37;100200.47;3567470;40;20085;-51
2021/05/18 07:33:06;;;;;;;11.57;10.38;;;;;;;14.41;90.51;100202.28;3565711;40;20066;-53
2021/05/18 07:35:33;;;;;;;9.10;7.80;;;;;;;14.60;85.21;100203.19;3563623;40;20041;-51
2021/05/18 07:38:01;;;;;;;10.73;8.60;;;;;;;15.13;83.92;100215.25;3568054;40;20453;-53
2021/05/18 07:40:28;;;;;;;9.40;7.78;;;;;;;15.56;82.96;100210.03;3566397;40;20085;-55
2021/05/18 07:42:58;;;;;;;10.80;7.47;;;;;;;15.66;81.81;100214.31;3563521;40;20049;-53
2021/05/18 07:45:26;;;;;;;33.47;10.32;;;;;;;15.60;82.43;100214.31;3564155;40;20101;-58
2021/05/18 07:48:11;;;;;;;12.70;8.38;;;;;;;15.26;80.22;100219.56;3563713;40;20037;-55
2021/05/18 07:50:49;;;;;;;12.50;7.82;;;;;;;15.22;80.88;100217.84;3564061;40;20343;-57
2021/05/18 08:06:57;;;;;;;10.10;7.53;;;;;;;15.50;81.81;100217.78;3563476;40;20391;-55
2021/05/18 08:09:26;;;;;;;8.20;6.75;;;;;;;14.94;83.33;100224.72;3567055;40;20105;-54
2021/05/18 08:11:53;;;;;;;9.88;7.63;;;;;;;14.83;82.78;100230.72;3564553;40;20072;-55
2021/05/18 08:14:21;;;;;;;11.40;9.43;;;;;;;14.72;82.30;100229.00;3566441;40;20372;-63
2021/05/18 08:17:11;;;;;;;10.02;8.98;;;;;;;14.43;82.61;100228.91;3566165;40;20068;-56
2021/05/18 09:36:18;;;;;;;0.75;0.75;;;;;;;17.42;62.73;100280.53;3570026;40;20040;-52
2021/05/18 10:36:43;;;;;;;1.42;1.05;;;;;;;25.02;40.14;100317.84;3563115;40;20072;-54
2021/05/18 10:39:28;;;;;;;1.60;1.30;;;;;;;24.38;38.71;100311.56;3562782;40;20347;-58
2021/05/18 10:41:55;;;;;;;0.88;0.82;;;;;;;25.00;38.60;100325.75;3564534;40;20145;-54
2021/05/18 10:44:22;;;;;;;1.40;1.30;;;;;;;24.83;38.19;100312.50;3569187;40;20139;-52
2021/05/18 10:46:58;;;;;;;1.45;1.35;;;;;;;26.11;35.09;100322.00;3567991;40;20060;-56
2021/05/18 10:49:32;;;;;;;1.98;1.30;;;;;;;25.75;37.38;100321.84;3565142;40;20048;-52
2021/05/18 10:52:02;;;;;;;3.15;2.42;;;;;;;25.59;36.98;100324.25;3565492;40;20063;-56
2021/05/18 10:54:33;;;;;;;7.00;4.32;;;;;;;26.08;36.13;100317.78;3565399;40;20056;-54
2021/05/18 10:57:05;;;;;;;5.60;3.35;;;;;;;25.85;35.06;100313.53;3562674;40;20053;-55
2021/05/18 10:59:45;;;;;;;2.40;1.70;;;;;;;24.60;39.50;100308.16;3565684;40;20300;-52
2021/05/18 11:02:24;;;;;;;2.20;1.95;;;;;;;23.22;39.45;100312.97;3564618;40;20608;-53
2021/05/18 11:05:11;;;;;;;3.17;2.17;;;;;;;21.80;42.75;100306.69;3563212;40;20053;-53
2021/05/18 11:07:44;;;;;;;3.95;1.95;;;;;;;22.33;39.62;100309.59;3565338;40;20062;-54
2021/05/18 11:10:16;;;;;;;2.60;1.67;;;;;;;22.50;41.69;100307.34;3566145;40;20471;-53
2021/05/18 11:12:54;;;;;;;4.55;1.83;;;;;;;21.93;41.42;100304.59;3569538;40;20045;-54
2021/05/18 11:15:25;;;;;;;3.80;1.90;;;;;;;23.40;40.75;100314.13;3570469;40;20414;-52
2021/05/18 11:17:53;;;;;;;3.55;2.10;;;;;;;22.48;42.32;100303.06;3598884;22;20054;-59
2021/05/18 11:25:54;;;;;;;3.78;1.80;;;;;;;25.99;34.54;100315.56;3536429;40;20050;-59
2021/05/18 11:28:32;;;;;;;2.73;1.70;;;;;;;24.76;35.56;100311.00;3534817;40;20061;-58
2021/05/18 11:31:00;;;;;;;3.47;1.90;;;;;;;23.77;37.86;100312.91;3530909;40;20058;-55
2021/05/18 11:33:31;;;;;;;2.75;1.90;;;;;;;22.93;38.65;100320.91;3531036;40;20090;-56
2021/05/18 11:36:23;;;;;;;1.90;1.60;;;;;;;20.59;43.45;100300.03;3525960;40;20110;-54
2021/05/18 11:39:06;;;;;;;3.28;1.65;;;;;;;23.38;38.09;100308.09;3525396;40;20066;-58
2021/05/18 11:41:38;;;;;;;3.40;1.50;;;;;;;26.92;34.70;100319.16;3527790;40;20079;-56
2021/05/18 11:44:09;;;;;;;3.47;2.03;;;;;;;26.80;33.22;100303.97;3526499;40;20648;-56
2021/05/18 11:46:49;;;;;;;3.05;1.80;;;;;;;28.67;29.84;100324.22;3522860;40;20062;-58
2021/05/18 11:49:21;;;;;;;4.38;1.75;;;;;;;29.00;28.06;100302.19;3523057;40;20069;-52
2021/05/18 11:51:56;;;;;;;2.38;1.70;;;;;;;26.94;32.48;100299.81;3521641;40;20094;-59
2021/05/18 11:54:30;;;;;;;4.30;1.80;;;;;;;26.38;31.49;100298.91;3524503;40;20063;-63
2021/05/18 11:56:59;;;;;;;3.10;1.50;;;;;;;24.62;33.25;100307.16;3521628;40;20348;-52
2021/05/18 11:59:27;;;;;;;2.50;1.83;;;;;;;24.76;33.53;100293.53;3528930;40;20073;-59
2021/05/18 12:02:01;;;;;;;3.88;1.50;;;;;;;23.46;35.57;100298.22;3531151;40;20424;-60
2021/05/18 12:04:30;;;;;;;2.65;1.65;;;;;;;23.75;34.11;100294.63;3530405;40;20039;-58
2021/05/18 12:07:07;;;;;;;3.67;1.38;;;;;;;22.36;36.52;100292.09;3530369;40;20489;-58
2021/05/18 12:09:36;;;;;;;3.38;1.50;;;;;;;22.67;38.34;100293.78;3522168;40;20513;-57
2021/05/18 12:12:09;;;;;;;2.90;1.33;;;;;;;22.08;38.25;100298.97;3527319;40;20051;-56
2021/05/18 12:14:45;;;;;;;4.53;2.03;;;;;;;21.69;39.41;100290.50;3521441;40;20090;-55
2021/05/18 12:17:23;;;;;;;3.78;1.77;;;;;;;21.44;39.87;100293.72;3524458;40;20055;-59
2021/05/18 12:19:52;;;;;;;2.55;1.65;;;;;;;20.71;41.26;100291.09;3526927;40;20117;-56
2021/05/18 12:22:21;;;;;;;3.90;1.63;;;;;;;19.85;42.71;100291.97;3524477;40;20052;-53
2021/05/18 12:24:49;;;;;;;5.07;1.92;;;;;;;19.59;42.17;100287.22;3523836;40;20054;-60
2021/05/18 12:27:17;;;;;;;5.18;1.85;;;;;;;19.22;43.87;100295.63;3528629;40;20035;-52
2021/05/18 12:29:52;;;;;;;2.60;1.90;;;;;;;19.11;46.15;100301.88;3525006;40;20099;-59
2021/05/18 12:32:28;;;;;;;5.28;2.00;;;;;;;19.21;45.84;100298.25;3523594;40;20055;-58
2021/05/18 12:35:17;;;;;;;2.45;1.88;;;;;;;18.79;46.90;100301.47;3525523;40;20054;-56
2021/05/18 12:37:48;;;;;;;4.72;1.88;;;;;;;18.06;49.73;100300.63;3523993;40;20431;-60
2021/05/18 12:40:20;;;;;;;3.90;2.17;;;;;;;17.15;50.32;100301.50;3520885;40;20063;-56
2021/05/18 12:42:49;;;;;;;5.05;2.15;;;;;;;17.17;51.77;100297.16;3523146;40;20334;-58
2021/05/18 12:45:18;;;;;;;5.60;2.10;;;;;;;16.67;53.96;100306.91;3525282;40;20058;-58
2021/05/18 12:47:53;;;;;;;3.13;2.20;;;;;;;16.86;53.55;100312.88;3521692;40;20071;-59
2021/05/18 12:50:21;;;;;;;6.45;3.03;;;;;;;16.73;54.30;100316.41;3520733;40;20055;-57
2021/05/18 12:52:53;;;;;;;5.50;2.33;;;;;;;16.48;56.08;100313.06;3522587;40;20055;-57
2021/05/18 12:55:25;;;;;;;5.78;2.58;;;;;;;16.64;55.20;100309.53;3523610;40;20404;-55
2021/05/18 12:57:58;;;;;;;4.88;1.77;;;;;;;16.80;56.07;100308.59;3526670;40;20050;-55
2021/05/18 13:00:35;;;;;;;4.88;2.53;;;;;;;17.02;55.22;100309.34;3521575;40;20119;-59
2021/05/18 13:03:14;;;;;;;5.53;2.65;;;;;;;16.99;54.79;100316.25;3519648;40;20058;-53
2021/05/18 13:05:55;;;;;;;4.70;3.03;;;;;;;16.79;55.82;100319.81;3521816;40;20234;-56
2021/05/18 13:08:37;;;;;;;5.03;2.50;;;;;;;17.47;54.17;100317.63;3523335;40;20390;-58
2021/05/18 13:11:09;;;;;;;4.57;2.50;;;;;;;17.39;55.68;100322.00;3523273;40;20102;-57
2021/05/18 13:13:37;;;;;;;26.33;15.15;;;;;;;17.28;54.15;100316.03;3529718;40;20059;-57
2021/05/18 13:16:23;;;;;;;8.13;6.15;;;;;;;17.49;53.77;100321.03;3522800;40;20059;-51
2021/05/18 13:19:05;;;;;;;7.53;4.47;;;;;;;17.49;53.27;100322.78;3522929;40;20056;-51
2021/05/18 13:21:45;;;;;;;5.55;2.67;;;;;;;17.91;51.60;100324.13;3525095;40;20340;-54
2021/05/18 13:26:59;;;;;;;;;;;;;;;18.59;49.47;100319.03;3522189;40;20209;-50
2021/05/18 13:29:26;;;;;;;3.88;1.95;;;;;;;19.12;47.97;100324.34;3526302;40;19954;-56
2021/05/18 13:31:56;;;;;;;4.70;2.40;;;;;;;19.21;47.27;100326.81;3521946;40;20447;-59
2021/05/18 13:34:42;;;;;;;4.70;1.83;;;;;;;19.65;47.58;100320.06;3524201;40;20922;-56
2021/05/18 13:37:11;;;;;;;4.15;2.08;;;;;;;19.99;46.21;100326.34;3521642;40;20133;-56
2021/05/18 13:39:39;;;;;;;4.88;2.33;;;;;;;20.95;44.39;100327.88;3520418;40;20079;-55
2021/05/18 13:42:07;;;;;;;3.78;1.92;;;;;;;21.94;42.60;100325.41;3524411;40;20247;-53
2021/05/18 13:44:38;;;;;;;4.63;2.03;;;;;;;22.38;41.38;100322.50;3521558;40;20124;-54
2021/05/18 13:47:05;;;;;;;5.10;2.50;;;;;;;22.82;40.67;100329.00;3521586;40;20062;-55
2021/05/18 13:49:33;;;;;;;3.00;2.10;;;;;;;22.75;41.68;100335.34;3523758;40;20159;-56
2021/05/18 13:52:14;;;;;;;2.95;1.90;;;;;;;22.78;39.78;100325.63;3518992;40;20059;-54
2021/05/18 13:54:42;;;;;;;3.88;2.22;;;;;;;22.25;39.44;100324.63;3528560;40;21553;-53
2021/05/18 13:57:10;;;;;;;4.40;1.92;;;;;;;21.27;42.63;100327.97;3526266;40;20444;-54
2021/05/18 13:59:38;;;;;;;4.47;2.50;;;;;;;20.49;45.44;100326.28;3530372;40;20054;-53
2021/05/18 14:02:06;;;;;;;8.93;2.65;;;;;;;20.30;46.21;100323.16;3525892;40;20541;-56
2021/05/18 14:04:34;;;;;;;6.85;2.10;;;;;;;22.70;42.39;100326.78;3524638;40;20058;-52
2021/05/18 14:10:10;;;;;;;4.50;2.05;;;;;;;26.04;35.61;100341.59;3524757;40;20044;-51
2021/05/18 14:12:38;;;;;;;4.07;1.85;;;;;;;27.30;31.23;100336.63;3524254;40;20328;-53
2021/05/18 14:15:07;;;;;;;4.65;2.10;;;;;;;29.79;28.62;100344.19;3522655;40;20051;-55
2021/05/18 14:17:37;;;;;;;3.22;1.60;;;;;;;27.44;28.96;100328.06;3524898;40;20627;-52
2021/05/18 14:20:06;;;;;;;4.45;1.75;;;;;;;24.39;35.76;100326.34;3526238;40;20040;-58
2021/05/18 14:22:35;;;;;;;4.95;1.92;;;;;;;27.06;30.41;100326.38;3523158;40;20046;-57
2021/05/18 14:25:06;;;;;;;3.13;2.00;;;;;;;29.59;26.72;100342.75;3520409;40;20060;-55
2021/05/18 14:27:38;;;;;;;3.22;1.70;;;;;;;29.12;26.83;100343.69;3519669;40;20044;-53
2021/05/18 14:30:09;;;;;;;3.13;1.73;;;;;;;29.36;26.40;100337.94;3519108;40;20306;-56
2021/05/18 14:32:38;;;;;;;3.50;1.88;;;;;;;28.08;26.11;100336.16;3518552;40;20075;-56
2021/05/18 14:35:09;;;;;;;3.53;1.50;;;;;;;27.26;27.77;100333.31;3519692;40;20113;-57
2021/05/18 14:37:38;;;;;;;2.80;1.48;;;;;;;25.25;30.99;100324.81;3519771;40;20055;-54
2021/05/18 14:40:23;;;;;;;2.72;1.50;;;;;;;23.11;33.34;100322.94;3518989;40;20063;-55
2021/05/18 14:45:34;;;;;;;2.83;1.52;;;;;;;22.40;36.13;100313.72;3529189;40;20140;-55
2021/05/18 14:55:57;;;;;;;4.28;1.70;;;;;;;21.67;37.58;100334.81;3525975;40;20047;-55
2021/05/18 14:58:25;;;;;;;2.83;2.10;;;;;;;20.89;39.14;100323.69;3530210;40;20130;-59
2021/05/18 15:00:53;;;;;;;4.85;1.80;;;;;;;20.75;38.82;100325.69;3525375;40;20347;-59
2021/05/18 15:03:20;;;;;;;2.65;1.55;;;;;;;20.09;41.73;100320.09;3524630;40;20494;-58
2021/05/18 15:05:48;;;;;;;3.85;1.95;;;;;;;19.89;43.40;100321.38;3523148;40;20430;-58
2021/05/18 15:08:16;;;;;;;3.92;1.70;;;;;;;19.97;41.17;100312.53;3528388;40;20099;-59
2021/05/18 15:11:03;;;;;;;3.08;1.42;;;;;;;20.03;40.43;100317.63;3525132;40;20058;-54
2021/05/18 15:13:33;;;;;;;2.75;1.63;;;;;;;19.74;41.22;100306.91;3522463;40;20125;-55
2021/05/18 15:16:01;;;;;;;2.92;1.80;;;;;;;19.34;42.30;100317.94;3520122;40;20826;-51
2021/05/18 15:18:31;;;;;;;4.45;1.60;;;;;;;19.22;42.32;100318.97;3519405;40;20063;-56
2021/05/18 15:21:00;;;;;;;3.50;1.70;;;;;;;19.19;41.72;100311.28;3520031;40;20732;-50
2021/05/18 15:23:28;;;;;;;3.50;1.77;;;;;;;19.16;42.59;100311.31;3524007;40;20090;-56
2021/05/18 15:25:57;;;;;;;3.10;2.08;;;;;;;18.57;45.89;100305.22;3525011;40;20106;-58
2021/05/18 15:28:24;;;;;;;3.50;2.00;;;;;;;18.99;44.68;100311.56;3529556;40;20039;-58
2021/05/18 15:30:55;;;;;;;3.00;2.35;;;;;;;19.18;44.78;100314.75;3530237;40;20132;-57
2021/05/18 15:33:23;;;;;;;4.90;2.45;;;;;;;19.10;45.18;100319.19;3529328;40;20467;-54
2021/05/18 15:35:50;;;;;;;5.75;1.92;;;;;;;19.42;43.56;100317.84;3529987;40;20059;-53
2021/05/18 15:38:18;;;;;;;2.25;1.73;;;;;;;19.08;45.59;100321.78;3528369;40;20096;-57
2021/05/18 15:40:46;;;;;;;4.35;1.60;;;;;;;19.30;44.69;100322.31;3529414;40;20062;-58
2021/05/18 15:43:14;;;;;;;4.28;1.90;;;;;;;19.21;43.32;100322.47;3528641;40;20961;-54
2021/05/18 15:45:41;;;;;;;3.65;2.10;;;;;;;18.33;44.73;100320.19;3526272;40;20047;-58
2021/05/18 15:48:10;;;;;;;2.45;1.48;;;;;;;18.83;43.44;100328.25;3526350;40;20151;-56
2021/05/18 15:50:39;;;;;;;3.10;2.00;;;;;;;19.14;43.09;100323.47;3529889;40;20162;-57
2021/05/18 15:53:12;;;;;;;3.33;2.03;;;;;;;19.24;43.68;100326.78;3528682;40;20058;-54
2021/05/18 15:55:39;;;;;;;5.13;1.95;;;;;;;18.54;43.38;100328.59;3529589;40;20039;-55
2021/05/18 15:58:07;;;;;;;5.70;1.90;;;;;;;18.69;43.11;100325.84;3531677;40;20058;-53
2021/05/18 16:00:35;;;;;;;2.45;1.60;;;;;;;17.82;43.98;100329.41;3525625;40;20043;-56
2021/05/18 16:03:04;;;;;;;4.10;1.60;;;;;;;18.10;44.06;100329.97;3530855;40;20416;-55
2021/05/18 16:05:33;;;;;;;2.53;1.85;;;;;;;18.49;43.16;100327.81;3530238;40;20054;-57
2021/05/18 16:08:58;;;;;;;2.47;1.98;;;;;;;18.53;43.13;100332.06;3530491;40;20134;-54
2021/05/18 16:10:58;;;;;;;2.22;1.38;;;;;;;18.50;43.67;100330.38;3527933;40;20070;-46
2021/05/18 16:13:26;;;;;;;5.03;1.88;;;;;;;18.44;42.93;100327.88;3530810;40;20062;-51
2021/05/18 16:15:58;;;;;;;4.38;2.72;;;;;;;18.39;44.15;100327.03;3531369;40;20085;-49
2021/05/18 16:18:25;;;;;;;2.28;1.80;;;;;;;18.63;43.17;100319.84;3530470;40;20373;-53
2021/05/18 16:20:53;;;;;;;3.33;1.90;;;;;;;18.47;43.69;100330.41;3531311;40;20054;-56
2021/05/18 16:23:21;;;;;;;3.10;1.70;;;;;;;18.38;44.15;100322.72;3530359;40;20055;-50
2021/05/18 16:25:50;;;;;;;2.38;1.60;;;;;;;17.98;44.68;100324.91;3531586;40;20055;-57
2021/05/18 16:28:17;;;;;;;4.10;1.73;;;;;;;17.67;45.73;100320.03;3530014;40;20063;-54
2021/05/18 16:30:45;;;;;;;1.80;1.70;;;;;;;17.87;45.52;100324.19;3531522;40;20117;-58
2021/05/18 16:33:13;;;;;;;5.05;2.08;;;;;;;18.15;46.54;100319.56;3530103;40;20508;-57
2021/05/18 16:35:41;;;;;;;1.70;1.42;;;;;;;18.30;44.91;100325.44;3530765;40;20082;-53
2021/05/18 16:38:09;;;;;;;2.30;1.90;;;;;;;18.11;44.44;100333.41;3530250;40;20061;-48
2021/05/18 16:40:37;;;;;;;2.05;1.67;;;;;;;17.84;46.07;100337.16;3525623;40;20054;-53
2021/05/18 16:43:04;;;;;;;2.08;1.67;;;;;;;18.33;44.06;100337.50;3530420;40;20055;-54
2021/05/18 16:45:33;;;;;;;1.92;1.50;;;;;;;18.03;44.83;100329.19;3531025;40;20043;-51